createdAt,value
2024-04-23T00:02:17.693Z,100.00
2024-04-23T00:04:46.264Z,100.00
2024-04-23T00:07:15.260Z,100.00
2024-04-23T00:09:43.613Z,100.00
2024-04-23T00:12:12.401Z,100.00
2024-04-23T00:14:41.225Z,100.00
2024-04-23T00:17:10.016Z,100.00
2024-04-23T00:19:38.554Z,100.00
2024-04-23T00:22:07.827Z,100.00
2024-04-23T00:24:36.125Z,100.00
2024-04-23T00:27:05.242Z,100.00
2024-04-23T00:29:33.395Z,100.00
2024-04-23T00:32:02.439Z,100.00
2024-04-23T00:34:30.740Z,100.00
2024-04-23T00:37:01.049Z,100.00
2024-04-23T00:39:29.389Z,100.00
2024-04-23T00:41:58.137Z,100.00
2024-04-23T00:44:26.280Z,100.00
2024-04-23T00:46:56.332Z,100.00
2024-04-23T00:49:24.842Z,100.00
2024-04-23T00:51:54.779Z,100.00
2024-04-23T00:54:25.337Z,100.00
2024-04-23T00:56:56.328Z,100.00
2024-04-23T00:59:25.041Z,100.00
2024-04-23T01:01:54.936Z,100.00
2024-04-23T01:04:23.357Z,100.00
2024-04-23T01:06:53.051Z,100.00
2024-04-23T01:09:21.756Z,100.00
2024-04-23T01:11:51.556Z,100.00
2024-04-23T01:14:20.258Z,100.00
2024-04-23T01:16:50.731Z,100.00
2024-04-23T01:19:43.023Z,100.00
2024-04-23T01:22:44.776Z,100.00
2024-04-23T01:25:18.266Z,100.00
2024-04-23T01:27:47.224Z,100.00
2024-04-23T01:30:16.295Z,100.00
2024-04-23T01:32:46.609Z,100.00
2024-04-23T01:35:15.508Z,100.00
2024-04-23T01:37:49.034Z,100.00
2024-04-23T01:40:17.415Z,100.00
2024-04-23T01:42:46.907Z,100.00
2024-04-23T01:45:17.716Z,100.00
2024-04-23T01:47:50.033Z,100.00
2024-04-23T01:50:18.307Z,100.00
2024-04-23T01:52:47.374Z,100.00
2024-04-23T01:55:17.712Z,100.00
2024-04-23T01:57:46.672Z,100.00
2024-04-23T02:00:17.332Z,100.00
2024-04-23T02:02:47.722Z,100.00
2024-04-23T02:05:16.394Z,100.00
2024-04-23T02:07:46.173Z,100.00
2024-04-23T02:10:15.021Z,100.00
2024-04-23T02:12:44.531Z,100.00
2024-04-23T02:15:12.474Z,100.00
2024-04-23T02:17:41.655Z,100.00
2024-04-23T02:20:11.975Z,100.00
2024-04-23T02:22:41.214Z,100.00
2024-04-23T02:25:09.534Z,100.00
2024-04-23T02:27:38.458Z,100.00
2024-04-23T02:30:07.364Z,100.00
2024-04-23T02:32:36.265Z,100.00
2024-04-23T02:35:05.258Z,100.00
2024-04-23T02:37:34.209Z,100.00
2024-04-23T02:40:05.419Z,100.00
2024-04-23T02:42:35.479Z,100.00
2024-04-23T02:45:03.701Z,100.00
2024-04-23T02:47:32.344Z,100.00
2024-04-23T02:50:01.210Z,100.00
2024-04-23T02:52:30.595Z,100.00
2024-04-23T02:54:59.516Z,100.00
2024-04-23T02:57:29.076Z,100.00
2024-04-23T03:00:00.472Z,100.00
2024-04-23T03:02:29.481Z,100.00
2024-04-23T03:04:58.112Z,100.00
2024-04-23T03:07:27.112Z,100.00
2024-04-23T03:09:55.292Z,100.00
2024-04-23T03:12:23.860Z,100.00
2024-04-23T03:14:51.927Z,100.00
2024-04-23T03:17:20.857Z,100.00
2024-04-23T03:19:49.286Z,100.00
2024-04-23T03:22:18.199Z,100.00
2024-04-23T03:24:46.798Z,100.00
2024-04-23T03:27:16.586Z,100.00
2024-04-23T03:29:44.980Z,100.00
2024-04-23T03:32:13.932Z,100.00
2024-04-23T03:34:41.934Z,100.00
2024-04-23T03:37:10.757Z,100.00
2024-04-23T03:39:39.132Z,100.00
2024-04-23T03:42:07.907Z,100.00
2024-04-23T03:44:39.187Z,100.00
2024-04-23T03:47:09.412Z,100.00
2024-04-23T03:49:37.883Z,100.00
2024-04-23T03:52:08.523Z,100.00
2024-04-23T03:54:37.670Z,100.00
2024-04-23T03:57:06.989Z,100.00
2024-04-23T03:59:35.414Z,100.00
2024-04-23T04:02:23.276Z,100.00
2024-04-23T04:05:10.152Z,100.00
2024-04-23T04:07:38.822Z,100.00
2024-04-23T04:10:07.716Z,100.00
2024-04-23T04:12:36.805Z,100.00
2024-04-23T04:15:05.462Z,100.00
2024-04-23T04:17:34.628Z,100.00
2024-04-23T04:20:03.514Z,100.00
2024-04-23T04:22:32.514Z,100.00
2024-04-23T04:25:00.558Z,100.00
2024-04-23T04:27:29.407Z,100.00
2024-04-23T04:29:57.902Z,100.00
2024-04-23T04:32:26.704Z,100.00
2024-04-23T04:34:55.394Z,100.00
2024-04-23T04:37:24.187Z,100.00
2024-04-23T04:39:52.369Z,100.00
2024-04-23T04:42:21.174Z,100.00
2024-04-23T04:44:49.620Z,100.00
2024-04-23T04:47:18.491Z,100.00
2024-04-23T04:49:47.148Z,100.00
2024-04-23T04:52:15.905Z,100.00
2024-04-23T04:54:44.638Z,100.00
2024-04-23T04:57:13.637Z,100.00
2024-04-23T04:59:41.762Z,100.00
2024-04-23T05:02:10.471Z,100.00
2024-04-23T05:04:38.521Z,100.00
2024-04-23T05:07:07.214Z,100.00
2024-04-23T05:09:35.646Z,100.00
2024-04-23T05:12:04.528Z,100.00
2024-04-23T05:14:32.806Z,100.00
2024-04-23T05:17:01.689Z,100.00
2024-04-23T05:19:30.371Z,100.00
2024-04-23T05:21:59.212Z,100.00
2024-04-23T05:24:27.926Z,100.00
2024-04-23T05:26:56.735Z,100.00
2024-04-23T05:29:25.200Z,100.00
2024-04-23T05:32:14.924Z,100.00
2024-04-23T05:34:44.527Z,100.00
2024-04-23T05:37:14.028Z,100.00
2024-04-23T05:39:42.470Z,100.00
2024-04-23T05:42:11.180Z,100.00
2024-04-23T05:44:39.150Z,100.00
2024-04-23T05:47:08.160Z,100.00
2024-04-23T05:50:14.112Z,100.00
2024-04-23T05:53:39.195Z,100.00
2024-04-23T05:56:26.035Z,100.00
2024-04-23T05:58:54.841Z,100.00
2024-04-23T06:01:23.438Z,100.00
2024-04-23T06:03:52.282Z,100.00
2024-04-23T06:06:20.667Z,100.00
2024-04-23T06:08:52.549Z,100.00
2024-04-23T06:11:21.288Z,100.00
2024-04-23T06:13:50.134Z,100.00
2024-04-23T06:16:18.633Z,100.00
2024-04-23T06:18:47.683Z,100.00
2024-04-23T06:21:15.791Z,100.00
2024-04-23T06:23:45.467Z,100.00
2024-04-23T06:26:13.980Z,100.00
2024-04-23T06:28:43.126Z,100.00
2024-04-23T06:31:14.989Z,100.00
2024-04-23T06:33:44.205Z,100.00
2024-04-23T06:36:12.698Z,100.00
2024-04-23T06:38:41.776Z,100.00
2024-04-23T06:41:10.996Z,100.00
2024-04-23T06:43:39.783Z,100.00
2024-04-23T06:46:07.726Z,100.00
2024-04-23T06:48:36.211Z,100.00
2024-04-23T06:51:06.079Z,100.00
2024-04-23T06:53:34.818Z,100.00
2024-04-23T06:56:03.451Z,100.00
2024-04-23T06:58:32.251Z,100.00
2024-04-23T07:01:02.054Z,100.00
2024-04-23T07:03:33.331Z,100.00
2024-04-23T07:06:01.948Z,100.00
2024-04-23T07:08:30.733Z,100.00
2024-04-23T07:10:59.600Z,100.00
2024-04-23T07:13:28.184Z,100.00
2024-04-23T07:15:56.796Z,100.00
2024-04-23T07:18:25.529Z,100.00
2024-04-23T07:20:54.768Z,100.00
2024-04-23T07:23:23.419Z,100.00
2024-04-23T07:25:52.277Z,100.00
2024-04-23T07:28:21.945Z,100.00
2024-04-23T07:30:54.132Z,100.00
2024-04-23T07:33:23.517Z,100.00
2024-04-23T07:35:52.543Z,100.00
2024-04-23T07:38:21.295Z,100.00
2024-04-23T07:40:50.277Z,100.00
2024-04-23T07:43:18.980Z,100.00
2024-04-23T07:45:47.346Z,100.00
2024-04-23T07:48:16.256Z,100.00
2024-04-23T07:50:44.275Z,100.00
2024-04-23T07:53:12.983Z,100.00
2024-04-23T07:55:41.630Z,100.00
2024-04-23T07:58:10.641Z,100.00
2024-04-23T08:00:38.982Z,100.00
2024-04-23T08:03:11.445Z,100.00
2024-04-23T08:05:40.388Z,91.97
2024-04-23T08:08:09.361Z,81.78
2024-04-23T08:10:37.805Z,83.78
2024-04-23T08:13:06.983Z,89.93
2024-04-23T08:15:35.458Z,84.96
2024-04-23T08:18:04.509Z,70.80
2024-04-23T08:20:33.279Z,65.09
2024-04-23T08:23:02.093Z,67.65
2024-04-23T08:25:30.548Z,68.67
2024-04-23T08:27:59.648Z,74.09
2024-04-23T08:30:27.970Z,69.89
2024-04-23T08:32:57.335Z,67.35
2024-04-23T08:35:26.095Z,65.40
2024-04-23T08:37:55.360Z,64.46
2024-04-23T08:40:24.921Z,65.06
2024-04-23T08:42:54.210Z,69.14
2024-04-23T08:45:24.677Z,73.86
2024-04-23T08:47:53.625Z,69.30
2024-04-23T08:50:23.617Z,70.50
2024-04-23T08:52:52.689Z,69.98
2024-04-23T08:55:22.643Z,69.33
2024-04-23T08:57:53.074Z,71.16
2024-04-23T09:00:21.914Z,72.90
2024-04-23T09:02:52.268Z,71.00
2024-04-23T09:05:24.060Z,73.85
2024-04-23T09:07:53.679Z,78.29
2024-04-23T09:10:22.355Z,76.04
2024-04-23T09:12:52.247Z,69.95
2024-04-23T09:15:20.735Z,73.21
2024-04-23T09:17:57.503Z,74.37
2024-04-23T09:20:26.526Z,71.03
2024-04-23T09:23:00.638Z,69.48
2024-04-23T09:25:38.423Z,67.32
2024-04-23T09:28:09.035Z,62.51
2024-04-23T09:30:41.197Z,61.55
2024-04-23T09:33:10.238Z,61.12
2024-04-23T09:35:40.053Z,62.42
2024-04-23T09:38:09.585Z,65.54
2024-04-23T09:40:41.520Z,64.00
2024-04-23T09:43:10.656Z,64.23
2024-04-23T09:45:38.711Z,65.81
2024-04-23T09:48:08.387Z,62.81
2024-04-23T09:50:38.273Z,59.08
2024-04-23T09:53:11.196Z,59.96
2024-04-23T09:55:40.167Z,62.86
2024-04-23T09:58:08.926Z,57.58
2024-04-23T10:00:38.324Z,57.16
2024-04-23T10:03:15.910Z,59.29
2024-04-23T10:05:50.804Z,60.02
2024-04-23T10:08:41.102Z,59.06
2024-04-23T10:11:11.714Z,57.87
2024-04-23T10:13:45.593Z,56.05
2024-04-23T10:16:37.389Z,55.47
2024-04-23T10:19:10.951Z,57.24
2024-04-23T10:21:43.754Z,59.80
2024-04-23T10:24:12.396Z,61.39
2024-04-23T10:26:44.246Z,60.94
2024-04-23T10:29:15.092Z,63.83
2024-04-23T10:31:44.282Z,60.03
2024-04-23T10:34:17.679Z,61.61
2024-04-23T10:36:51.674Z,57.68
2024-04-23T10:39:26.001Z,57.64
2024-04-23T10:41:55.293Z,59.42
2024-04-23T10:44:25.187Z,56.46
2024-04-23T10:46:53.969Z,58.42
2024-04-23T10:49:26.906Z,58.79
2024-04-23T10:51:57.626Z,56.45
2024-04-23T10:54:26.326Z,60.67
2024-04-23T10:57:09.657Z,57.82
2024-04-23T10:59:39.183Z,60.27
2024-04-23T11:02:09.485Z,60.82
2024-04-23T11:04:43.820Z,59.79
2024-04-23T11:07:14.062Z,65.70
2024-04-23T11:09:44.165Z,57.82
2024-04-23T11:12:26.155Z,58.29
2024-04-23T11:14:55.362Z,60.34
2024-04-23T11:17:23.968Z,59.71
2024-04-23T11:19:54.704Z,57.52
2024-04-23T11:22:31.539Z,55.97
2024-04-23T11:25:05.363Z,55.42
2024-04-23T11:27:34.682Z,53.97
2024-04-23T11:30:03.779Z,55.06
2024-04-23T11:32:32.885Z,57.55
2024-04-23T11:35:08.395Z,56.14
2024-04-23T11:37:37.007Z,53.25
2024-04-23T11:40:06.494Z,54.94
2024-04-23T11:42:35.207Z,51.81
2024-04-23T11:45:05.471Z,51.39
2024-04-23T11:47:35.219Z,50.08
2024-04-23T11:50:08.802Z,51.45
2024-04-23T11:52:37.919Z,51.85
2024-04-23T11:55:10.791Z,51.87
2024-04-23T11:57:41.819Z,50.73
2024-04-23T12:00:11.006Z,51.37
2024-04-23T12:02:39.290Z,50.21
2024-04-23T12:05:09.324Z,50.48
2024-04-23T12:07:38.023Z,52.24
2024-04-23T12:10:07.473Z,51.75
2024-04-23T12:12:37.646Z,55.68
2024-04-23T12:15:07.913Z,59.17
2024-04-23T12:17:42.519Z,56.74
2024-04-23T12:20:12.755Z,57.45
2024-04-23T12:22:46.686Z,55.43
2024-04-23T12:25:19.392Z,56.80
2024-04-23T12:27:48.868Z,50.99
2024-04-23T12:30:20.865Z,52.94
2024-04-23T12:32:51.692Z,54.16
2024-04-23T12:35:22.260Z,53.37
2024-04-23T12:37:59.249Z,52.72
2024-04-23T12:40:28.642Z,51.52
2024-04-23T12:42:58.253Z,49.47
2024-04-23T12:45:26.975Z,49.85
2024-04-23T12:47:58.389Z,51.02
2024-04-23T12:50:27.422Z,53.60
2024-04-23T12:52:55.652Z,50.96
2024-04-23T12:55:24.698Z,51.63
2024-04-23T12:57:53.475Z,47.77
2024-04-23T13:00:22.112Z,46.84
2024-04-23T13:02:50.556Z,48.46
2024-04-23T13:05:19.368Z,49.90
2024-04-23T13:07:47.666Z,50.11
2024-04-23T13:10:16.832Z,50.17
2024-04-23T13:12:45.849Z,52.85
2024-04-23T13:15:14.948Z,50.15
2024-04-23T13:17:43.084Z,48.51
2024-04-23T13:20:12.644Z,47.36
2024-04-23T13:22:41.066Z,46.90
2024-04-23T13:25:11.173Z,48.35
2024-04-23T13:27:39.623Z,51.14
2024-04-23T13:30:08.672Z,48.39
2024-04-23T13:32:39.450Z,48.22
2024-04-23T13:35:09.088Z,50.02
2024-04-23T13:37:37.529Z,49.79
2024-04-23T13:40:08.469Z,49.65
2024-04-23T13:42:37.927Z,49.97
2024-04-23T13:45:06.954Z,49.04
2024-04-23T13:47:40.328Z,52.54
2024-04-23T13:50:10.565Z,49.30
2024-04-23T13:52:41.835Z,50.97
2024-04-23T13:55:11.402Z,52.16
2024-04-23T13:57:41.447Z,47.96
2024-04-23T14:00:10.450Z,50.81
2024-04-23T14:02:38.552Z,51.23
2024-04-23T14:05:07.529Z,52.33
2024-04-23T14:07:36.854Z,47.98
2024-04-23T14:10:06.073Z,50.61
2024-04-23T14:12:38.154Z,50.36
2024-04-23T14:15:07.612Z,49.81
2024-04-23T14:17:35.787Z,50.10
2024-04-23T14:20:05.311Z,49.51
2024-04-23T14:22:33.584Z,51.72
2024-04-23T14:25:02.567Z,50.72
2024-04-23T14:27:31.179Z,50.25
2024-04-23T14:29:59.800Z,50.80
2024-04-23T14:32:29.953Z,50.56
2024-04-23T14:35:08.557Z,49.19
2024-04-23T14:37:39.228Z,47.56
2024-04-23T14:40:09.334Z,47.92
2024-04-23T14:42:37.370Z,50.63
2024-04-23T14:45:06.879Z,49.14
2024-04-23T14:47:36.554Z,46.86
2024-04-23T14:50:08.781Z,47.59
2024-04-23T14:52:36.848Z,45.81
2024-04-23T14:55:06.009Z,45.53
2024-04-23T14:57:34.152Z,45.14
2024-04-23T15:00:03.321Z,45.52
2024-04-23T15:02:31.831Z,47.04
2024-04-23T15:05:00.918Z,47.49
2024-04-23T15:07:32.623Z,46.76
2024-04-23T15:10:01.456Z,47.36
2024-04-23T15:12:29.630Z,47.07
2024-04-23T15:14:58.516Z,48.17
2024-04-23T15:17:26.928Z,46.57
2024-04-23T15:19:59.205Z,47.98
2024-04-23T15:22:27.409Z,49.12
2024-04-23T15:24:56.282Z,46.61
2024-04-23T15:27:24.420Z,46.80
2024-04-23T15:29:53.452Z,48.02
2024-04-23T15:32:21.896Z,47.61
2024-04-23T15:34:50.949Z,48.21
2024-04-23T15:37:19.130Z,49.67
2024-04-23T15:39:47.662Z,47.47
2024-04-23T15:42:15.819Z,47.20
2024-04-23T15:44:44.945Z,48.91
2024-04-23T15:47:13.244Z,47.80
2024-04-23T15:49:42.227Z,48.36
2024-04-23T15:52:10.894Z,50.24
2024-04-23T15:54:40.322Z,49.80
2024-04-23T15:57:09.893Z,50.10
2024-04-23T15:59:38.860Z,50.17
2024-04-23T16:02:07.346Z,51.02
2024-04-23T16:04:36.138Z,51.52
2024-04-23T16:07:04.725Z,51.99
2024-04-23T16:09:33.651Z,52.01
2024-04-23T16:12:04.565Z,53.04
2024-04-23T16:14:37.140Z,51.26
2024-04-23T16:17:05.290Z,51.94
2024-04-23T16:19:34.320Z,54.08
2024-04-23T16:22:02.501Z,51.48
2024-04-23T16:24:31.271Z,51.75
2024-04-23T16:27:02.388Z,52.81
2024-04-23T16:29:32.494Z,52.49
2024-04-23T16:32:02.589Z,52.20
2024-04-23T16:34:33.155Z,53.82
2024-04-23T16:37:01.753Z,51.73
2024-04-23T16:39:31.178Z,52.44
2024-04-23T16:41:59.745Z,52.33
2024-04-23T16:44:28.551Z,52.74
2024-04-23T16:46:57.208Z,51.54
2024-04-23T16:49:25.574Z,53.07
2024-04-23T16:51:53.635Z,53.07
2024-04-23T16:54:23.321Z,53.61
2024-04-23T16:56:51.667Z,54.34
2024-04-23T16:59:20.952Z,54.33
2024-04-23T17:01:49.346Z,55.22
2024-04-23T17:04:18.017Z,56.46
2024-04-23T17:06:47.190Z,59.38
2024-04-23T17:09:16.331Z,60.62
2024-04-23T17:11:45.579Z,62.28
2024-04-23T17:14:14.500Z,64.43
2024-04-23T17:16:43.521Z,66.52
2024-04-23T17:19:12.480Z,68.42
2024-04-23T17:21:40.868Z,69.77
2024-04-23T17:24:09.624Z,71.01
2024-04-23T17:26:38.250Z,74.26
2024-04-23T17:29:07.164Z,73.68
2024-04-23T17:31:35.622Z,75.30
2024-04-23T17:34:04.582Z,76.20
2024-04-23T17:36:33.122Z,76.42
2024-04-23T17:39:02.133Z,77.50
2024-04-23T17:41:30.557Z,78.71
2024-04-23T17:43:59.273Z,81.57
2024-04-23T17:46:27.918Z,82.07
2024-04-23T17:48:56.580Z,84.45
2024-04-23T17:51:25.234Z,86.46
2024-04-23T17:53:53.753Z,88.75
2024-04-23T17:56:22.454Z,92.87
2024-04-23T17:58:51.543Z,92.78
2024-04-23T18:01:20.116Z,93.16
2024-04-23T18:03:51.677Z,94.46
2024-04-23T18:06:20.267Z,96.19
2024-04-23T18:08:49.114Z,98.17
2024-04-23T18:11:23.583Z,99.24
2024-04-23T18:13:52.495Z,100.00
2024-04-23T18:16:21.006Z,100.00
2024-04-23T18:18:52.762Z,100.00
2024-04-23T18:21:21.604Z,100.00
2024-04-23T18:23:50.300Z,100.00
2024-04-23T18:26:18.349Z,100.00
2024-04-23T18:28:47.546Z,100.00
2024-04-23T18:31:16.043Z,100.00
2024-04-23T18:33:47.114Z,100.00
2024-04-23T18:36:15.483Z,100.00
2024-04-23T18:38:44.221Z,100.00
2024-04-23T18:41:17.748Z,100.00
2024-04-23T18:43:47.726Z,100.00
2024-04-23T18:46:17.456Z,100.00
2024-04-23T18:48:47.007Z,100.00
2024-04-23T18:51:16.229Z,100.00
2024-04-23T18:53:49.117Z,100.00
2024-04-23T18:59:28.200Z,100.00
2024-04-23T19:02:00.645Z,100.00
2024-04-23T19:04:30.805Z,100.00
2024-04-23T19:07:00.116Z,100.00
2024-04-23T19:09:31.677Z,100.00
2024-04-23T19:12:01.551Z,100.00
2024-04-23T19:14:29.708Z,100.00
2024-04-23T19:16:58.564Z,100.00
2024-04-23T19:19:26.518Z,100.00
2024-04-23T19:21:56.658Z,100.00
2024-04-23T19:24:24.839Z,100.00
2024-04-23T19:27:03.870Z,100.00
2024-04-23T19:29:36.416Z,100.00
2024-04-23T19:32:06.825Z,100.00
2024-04-23T19:34:35.159Z,100.00
2024-04-23T19:37:03.991Z,100.00
2024-04-23T19:39:32.474Z,100.00
2024-04-23T19:42:01.462Z,100.00
2024-04-23T19:44:30.183Z,100.00
2024-04-23T19:46:58.903Z,100.00
2024-04-23T19:49:28.724Z,100.00
2024-04-23T19:52:01.148Z,100.00
2024-04-23T19:54:36.239Z,100.00
2024-04-23T19:57:08.251Z,100.00
2024-04-23T19:59:42.188Z,100.00
2024-04-23T20:02:13.770Z,100.00
2024-04-23T20:04:41.847Z,100.00
2024-04-23T20:07:10.440Z,100.00
2024-04-23T20:09:43.462Z,100.00
2024-04-23T20:12:12.420Z,100.00
2024-04-23T20:14:40.955Z,100.00
2024-04-23T20:17:11.988Z,100.00
2024-04-23T20:19:40.368Z,100.00
2024-04-23T20:22:09.092Z,100.00
2024-04-23T20:24:37.619Z,100.00
2024-04-23T20:27:06.334Z,100.00
2024-04-23T20:29:34.752Z,100.00
2024-04-23T20:32:03.622Z,100.00
2024-04-23T20:34:32.264Z,100.00
2024-04-23T20:37:01.172Z,100.00
2024-04-23T20:39:30.549Z,100.00
2024-04-23T20:41:59.260Z,100.00
2024-04-23T20:44:27.800Z,100.00
2024-04-23T20:46:56.497Z,100.00
2024-04-23T20:49:24.532Z,100.00
2024-04-23T20:51:53.112Z,100.00
2024-04-23T20:54:21.580Z,100.00
2024-04-23T20:56:50.191Z,100.00
2024-04-23T20:59:20.388Z,100.00
2024-04-23T21:01:49.109Z,100.00
2024-04-23T21:04:17.503Z,100.00
2024-04-23T21:06:46.244Z,100.00
2024-04-23T21:09:14.488Z,100.00
2024-04-23T21:11:43.630Z,100.00
2024-04-23T21:14:12.342Z,100.00
2024-04-23T21:16:41.158Z,100.00
2024-04-23T21:19:09.605Z,100.00
2024-04-23T21:21:38.404Z,100.00
2024-04-23T21:24:07.368Z,100.00
2024-04-23T21:26:36.299Z,100.00
2024-04-23T21:29:04.663Z,100.00
2024-04-23T21:31:33.497Z,100.00
2024-04-23T21:34:02.031Z,100.00
2024-04-23T21:36:30.758Z,100.00
2024-04-23T21:38:58.966Z,100.00
2024-04-23T21:41:27.606Z,100.00
2024-04-23T21:43:55.742Z,100.00
2024-04-23T21:46:24.809Z,100.00
2024-04-23T21:48:56.221Z,100.00
2024-04-23T21:51:27.519Z,100.00
2024-04-23T21:53:57.981Z,100.00
2024-04-23T21:56:26.641Z,100.00
2024-04-23T21:58:55.043Z,100.00
2024-04-23T22:01:24.367Z,100.00
2024-04-23T22:03:52.456Z,100.00
2024-04-23T22:06:23.054Z,100.00
2024-04-23T22:08:51.783Z,100.00
2024-04-23T22:11:20.671Z,100.00
2024-04-23T22:13:49.154Z,100.00
2024-04-23T22:16:18.731Z,100.00
2024-04-23T22:18:47.723Z,100.00
2024-04-23T22:21:16.540Z,100.00
2024-04-23T22:23:44.760Z,100.00
2024-04-23T22:26:13.868Z,100.00
2024-04-23T22:28:41.797Z,100.00
2024-04-23T22:31:10.624Z,100.00
2024-04-23T22:33:40.118Z,100.00
2024-04-23T22:36:08.967Z,100.00
2024-04-23T22:38:37.627Z,100.00
2024-04-23T22:41:06.496Z,100.00
2024-04-23T22:43:34.769Z,100.00
2024-04-23T22:46:03.810Z,100.00
2024-04-23T22:48:34.427Z,100.00
2024-04-23T22:51:03.633Z,100.00
2024-04-23T22:53:31.827Z,100.00
2024-04-23T22:56:00.295Z,100.00
2024-04-23T22:58:28.663Z,100.00
2024-04-23T23:00:57.301Z,100.00
2024-04-23T23:03:25.464Z,100.00
2024-04-23T23:05:55.361Z,100.00
2024-04-23T23:08:23.618Z,100.00
2024-04-23T23:10:52.520Z,100.00
2024-04-23T23:13:20.850Z,100.00
2024-04-23T23:15:49.564Z,100.00
2024-04-23T23:18:17.842Z,100.00
2024-04-23T23:20:46.764Z,100.00
2024-04-23T23:23:14.789Z,100.00
2024-04-23T23:25:44.117Z,100.00
2024-04-23T23:28:12.525Z,100.00
2024-04-23T23:30:41.488Z,100.00
2024-04-23T23:33:09.681Z,100.00
2024-04-23T23:35:38.938Z,100.00
2024-04-23T23:38:07.623Z,100.00
2024-04-23T23:40:36.514Z,100.00
2024-04-23T23:43:05.045Z,100.00
2024-04-23T23:45:34.258Z,100.00
2024-04-23T23:48:02.387Z,100.00
2024-04-23T23:50:31.990Z,100.00
2024-04-23T23:53:00.613Z,100.00
2024-04-23T23:55:30.023Z,100.00
2024-04-23T23:57:58.554Z,100.00
